If you wish to contribute or participate in the discussions about articles you are invited to join SKYbrary as a registered user

 Actions

Kalemie Airport

From SKYbrary Wiki

FZRF
Airport
ICAO: FZRF – IATA: FMI
Summary
Name Kalemie Airport
Region Africa
Territory Democratic Republic of the Congo CD.gif
Location , Katanga
Serving Kalemie
Elevation 783.031 m
2,569 ft
2,569 ft783.031 m
Type medium airport
Coordinates 5° 52' 32.00" S, 29° 15' 0.00" E
Runways
Designator Length Width Surface ROPS
6/24 1750 m5,741.47 ft
27 m88.583 ft
ASP /


METAR
Observation FZRF 200900Z 07014G17KT 9999 FEW024 30/23 Q1018 NOSIG
Station Kalemie
Date/Time 20 September 2019 09:00:00
Wind direction 70°
Wind speed 14 kts
Lowest cloud amount few clouds
Temperature 30°C
Dew point 23°C
Humidity 66%
QNH 1018 hPa
Weather condition n/a